sensor_id;sensor_type;location;lat;lon;timestamp;temperature;humidity
16505;HTU21D;8365;51.030;4.696;2024-02-28T00:01:53;5.59;118.99
16505;HTU21D;8365;51.030;4.696;2024-02-28T00:04:23;5.43;118.99
16505;HTU21D;8365;51.030;4.696;2024-02-28T00:06:54;5.48;118.99
16505;HTU21D;8365;51.030;4.696;2024-02-28T00:09:27;5.61;118.99
16505;HTU21D;8365;51.030;4.696;2024-02-28T00:12:00;5.48;118.99
16505;HTU21D;8365;51.030;4.696;2024-02-28T00:14:30;5.43;118.99
16505;HTU21D;8365;51.030;4.696;2024-02-28T00:17:03;5.46;118.99
16505;HTU21D;8365;51.030;4.696;2024-02-28T00:19:34;5.53;118.99
16505;HTU21D;8365;51.030;4.696;2024-02-28T00:22:04;5.67;118.99
16505;HTU21D;8365;51.030;4.696;2024-02-28T00:24:35;5.57;118.99
16505;HTU21D;8365;51.030;4.696;2024-02-28T00:27:09;5.47;118.99
16505;HTU21D;8365;51.030;4.696;2024-02-28T00:29:40;5.43;118.99
16505;HTU21D;8365;51.030;4.696;2024-02-28T00:32:13;5.46;118.99
16505;HTU21D;8365;51.030;4.696;2024-02-28T00:34:43;5.55;118.99
16505;HTU21D;8365;51.030;4.696;2024-02-28T00:37:14;5.48;118.99
16505;HTU21D;8365;51.030;4.696;2024-02-28T00:39:45;5.45;118.99
16505;HTU21D;8365;51.030;4.696;2024-02-28T00:42:15;5.48;118.99
16505;HTU21D;8365;51.030;4.696;2024-02-28T00:44:46;5.49;118.99
16505;HTU21D;8365;51.030;4.696;2024-02-28T00:47:16;5.56;118.99
16505;HTU21D;8365;51.030;4.696;2024-02-28T00:49:47;5.53;118.99
16505;HTU21D;8365;51.030;4.696;2024-02-28T00:52:17;5.47;118.99
16505;HTU21D;8365;51.030;4.696;2024-02-28T00:54:48;5.45;118.99
16505;HTU21D;8365;51.030;4.696;2024-02-28T00:57:18;5.46;118.99
16505;HTU21D;8365;51.030;4.696;2024-02-28T00:59:51;4.79;118.99
16505;HTU21D;8365;51.030;4.696;2024-02-28T01:02:24;4.76;118.99
16505;HTU21D;8365;51.030;4.696;2024-02-28T01:04:57;4.98;118.99
16505;HTU21D;8365;51.030;4.696;2024-02-28T01:07:28;4.88;118.99
16505;HTU21D;8365;51.030;4.696;2024-02-28T01:09:58;4.67;118.99
16505;HTU21D;8365;51.030;4.696;2024-02-28T01:12:29;4.69;118.99
16505;HTU21D;8365;51.030;4.696;2024-02-28T01:15:00;4.59;118.99
16505;HTU21D;8365;51.030;4.696;2024-02-28T01:17:30;4.38;118.99
16505;HTU21D;8365;51.030;4.696;2024-02-28T01:20:01;4.66;118.99
16505;HTU21D;8365;51.030;4.696;2024-02-28T01:22:32;4.57;118.99
16505;HTU21D;8365;51.030;4.696;2024-02-28T01:25:02;4.47;118.99
16505;HTU21D;8365;51.030;4.696;2024-02-28T01:27:33;4.47;118.99
16505;HTU21D;8365;51.030;4.696;2024-02-28T01:30:04;4.42;118.99
16505;HTU21D;8365;51.030;4.696;2024-02-28T01:32:35;4.39;118.99
16505;HTU21D;8365;51.030;4.696;2024-02-28T01:35:08;4.32;118.99
16505;HTU21D;8365;51.030;4.696;2024-02-28T01:37:39;4.39;118.99
16505;HTU21D;8365;51.030;4.696;2024-02-28T01:40:10;4.37;118.99
16505;HTU21D;8365;51.030;4.696;2024-02-28T01:42:41;4.28;118.99
16505;HTU21D;8365;51.030;4.696;2024-02-28T01:45:13;4.42;118.99
16505;HTU21D;8365;51.030;4.696;2024-02-28T01:47:44;4.32;118.99
16505;HTU21D;8365;51.030;4.696;2024-02-28T01:50:17;4.24;118.99
16505;HTU21D;8365;51.030;4.696;2024-02-28T01:52:48;4.12;118.99
16505;HTU21D;8365;51.030;4.696;2024-02-28T01:55:18;4.23;118.99
16505;HTU21D;8365;51.030;4.696;2024-02-28T01:57:49;4.28;118.99
16505;HTU21D;8365;51.030;4.696;2024-02-28T02:00:23;4.21;118.99
16505;HTU21D;8365;51.030;4.696;2024-02-28T02:02:57;4.26;118.99
16505;HTU21D;8365;51.030;4.696;2024-02-28T02:05:28;4.35;118.99
16505;HTU21D;8365;51.030;4.696;2024-02-28T02:07:59;4.38;118.99
16505;HTU21D;8365;51.030;4.696;2024-02-28T02:10:31;4.34;118.99
16505;HTU21D;8365;51.030;4.696;2024-02-28T02:13:05;4.10;118.99
16505;HTU21D;8365;51.030;4.696;2024-02-28T02:15:36;3.92;118.99
16505;HTU21D;8365;51.030;4.696;2024-02-28T02:18:09;3.93;118.99
16505;HTU21D;8365;51.030;4.696;2024-02-28T02:20:43;3.71;118.99
16505;HTU21D;8365;51.030;4.696;2024-02-28T02:23:14;3.53;118.99
16505;HTU21D;8365;51.030;4.696;2024-02-28T02:25:45;3.52;118.99
16505;HTU21D;8365;51.030;4.696;2024-02-28T02:28:18;3.31;118.99
16505;HTU21D;8365;51.030;4.696;2024-02-28T02:30:49;3.38;118.99
16505;HTU21D;8365;51.030;4.696;2024-02-28T02:33:20;3.41;118.99
16505;HTU21D;8365;51.030;4.696;2024-02-28T02:35:52;3.36;118.99
16505;HTU21D;8365;51.030;4.696;2024-02-28T02:38:23;3.34;118.99
16505;HTU21D;8365;51.030;4.696;2024-02-28T02:40:53;3.44;118.99
16505;HTU21D;8365;51.030;4.696;2024-02-28T02:43:24;3.45;118.99
16505;HTU21D;8365;51.030;4.696;2024-02-28T02:45:54;3.39;118.99
16505;HTU21D;8365;51.030;4.696;2024-02-28T02:48:25;3.47;118.99
16505;HTU21D;8365;51.030;4.696;2024-02-28T02:50:55;3.53;118.99
16505;HTU21D;8365;51.030;4.696;2024-02-28T02:53:26;3.60;118.99
16505;HTU21D;8365;51.030;4.696;2024-02-28T02:55:56;3.63;118.99
16505;HTU21D;8365;51.030;4.696;2024-02-28T02:58:27;3.65;118.99
16505;HTU21D;8365;51.030;4.696;2024-02-28T03:00:57;3.70;118.99
16505;HTU21D;8365;51.030;4.696;2024-02-28T03:03:28;3.73;118.99
16505;HTU21D;8365;51.030;4.696;2024-02-28T03:05:58;3.73;118.99
16505;HTU21D;8365;51.030;4.696;2024-02-28T03:08:29;3.57;118.99
16505;HTU21D;8365;51.030;4.696;2024-02-28T03:10:59;3.47;118.99
16505;HTU21D;8365;51.030;4.696;2024-02-28T03:13:30;3.43;118.99
16505;HTU21D;8365;51.030;4.696;2024-02-28T03:16:00;3.29;118.99
16505;HTU21D;8365;51.030;4.696;2024-02-28T03:18:30;3.34;118.99
16505;HTU21D;8365;51.030;4.696;2024-02-28T03:21:01;3.36;118.99
16505;HTU21D;8365;51.030;4.696;2024-02-28T03:23:33;3.29;118.99
16505;HTU21D;8365;51.030;4.696;2024-02-28T03:26:03;3.29;118.99
16505;HTU21D;8365;51.030;4.696;2024-02-28T03:28:34;3.33;118.99
16505;HTU21D;8365;51.030;4.696;2024-02-28T03:31:06;3.23;118.99
16505;HTU21D;8365;51.030;4.696;2024-02-28T03:33:37;3.36;118.99
16505;HTU21D;8365;51.030;4.696;2024-02-28T03:36:07;3.40;118.99
16505;HTU21D;8365;51.030;4.696;2024-02-28T03:38:38;3.40;118.99
16505;HTU21D;8365;51.030;4.696;2024-02-28T03:41:09;3.38;118.99
16505;HTU21D;8365;51.030;4.696;2024-02-28T03:43:39;3.35;118.99
16505;HTU21D;8365;51.030;4.696;2024-02-28T03:46:10;3.38;118.99
16505;HTU21D;8365;51.030;4.696;2024-02-28T03:48:40;3.38;118.99
16505;HTU21D;8365;51.030;4.696;2024-02-28T03:51:11;3.26;118.99
16505;HTU21D;8365;51.030;4.696;2024-02-28T03:53:41;3.21;118.99
16505;HTU21D;8365;51.030;4.696;2024-02-28T03:56:12;3.27;118.99
16505;HTU21D;8365;51.030;4.696;2024-02-28T03:58:45;3.27;118.99
16505;HTU21D;8365;51.030;4.696;2024-02-28T04:01:16;3.31;118.99
16505;HTU21D;8365;51.030;4.696;2024-02-28T04:03:46;3.27;118.99
16505;HTU21D;8365;51.030;4.696;2024-02-28T04:06:17;3.31;118.99
16505;HTU21D;8365;51.030;4.696;2024-02-28T04:08:48;3.29;118.99
16505;HTU21D;8365;51.030;4.696;2024-02-28T04:11:19;3.20;118.99
16505;HTU21D;8365;51.030;4.696;2024-02-28T04:13:49;3.16;118.99
16505;HTU21D;8365;51.030;4.696;2024-02-28T04:16:20;3.19;118.99
16505;HTU21D;8365;51.030;4.696;2024-02-28T04:18:50;3.11;118.99
16505;HTU21D;8365;51.030;4.696;2024-02-28T04:21:21;3.05;118.99
16505;HTU21D;8365;51.030;4.696;2024-02-28T04:23:51;3.08;118.99
16505;HTU21D;8365;51.030;4.696;2024-02-28T04:26:22;3.15;118.99
16505;HTU21D;8365;51.030;4.696;2024-02-28T04:28:52;3.12;118.99
16505;HTU21D;8365;51.030;4.696;2024-02-28T04:31:23;3.20;118.99
16505;HTU21D;8365;51.030;4.696;2024-02-28T04:33:53;3.26;118.99
16505;HTU21D;8365;51.030;4.696;2024-02-28T04:36:23;3.20;118.99
16505;HTU21D;8365;51.030;4.696;2024-02-28T04:38:54;3.27;118.99
16505;HTU21D;8365;51.030;4.696;2024-02-28T04:41:24;3.18;118.99
16505;HTU21D;8365;51.030;4.696;2024-02-28T04:43:55;3.16;118.99
16505;HTU21D;8365;51.030;4.696;2024-02-28T04:46:25;3.18;118.99
16505;HTU21D;8365;51.030;4.696;2024-02-28T04:48:56;3.21;118.99
16505;HTU21D;8365;51.030;4.696;2024-02-28T04:51:26;3.27;118.99
16505;HTU21D;8365;51.030;4.696;2024-02-28T04:53:59;3.26;118.99
16505;HTU21D;8365;51.030;4.696;2024-02-28T04:56:29;3.19;118.99
16505;HTU21D;8365;51.030;4.696;2024-02-28T04:59:02;3.23;118.99
16505;HTU21D;8365;51.030;4.696;2024-02-28T05:01:33;3.24;118.99
16505;HTU21D;8365;51.030;4.696;2024-02-28T05:04:08;3.25;118.99
16505;HTU21D;8365;51.030;4.696;2024-02-28T05:06:38;3.18;118.99
16505;HTU21D;8365;51.030;4.696;2024-02-28T05:09:09;3.14;118.99
16505;HTU21D;8365;51.030;4.696;2024-02-28T05:11:39;3.24;118.99
16505;HTU21D;8365;51.030;4.696;2024-02-28T05:14:10;3.24;118.99
16505;HTU21D;8365;51.030;4.696;2024-02-28T05:16:43;3.18;118.99
16505;HTU21D;8365;51.030;4.696;2024-02-28T05:19:14;3.11;118.99
16505;HTU21D;8365;51.030;4.696;2024-02-28T05:21:45;3.09;118.99
16505;HTU21D;8365;51.030;4.696;2024-02-28T05:24:15;3.06;118.99
16505;HTU21D;8365;51.030;4.696;2024-02-28T05:26:46;3.12;118.99
16505;HTU21D;8365;51.030;4.696;2024-02-28T05:29:16;3.17;118.99
16505;HTU21D;8365;51.030;4.696;2024-02-28T05:31:47;3.11;118.99
16505;HTU21D;8365;51.030;4.696;2024-02-28T05:34:17;3.15;118.99
16505;HTU21D;8365;51.030;4.696;2024-02-28T05:36:48;3.12;118.99
16505;HTU21D;8365;51.030;4.696;2024-02-28T05:39:19;3.20;118.99
16505;HTU21D;8365;51.030;4.696;2024-02-28T05:41:49;3.08;118.99
16505;HTU21D;8365;51.030;4.696;2024-02-28T05:44:20;3.15;118.99
16505;HTU21D;8365;51.030;4.696;2024-02-28T05:46:50;3.10;118.99
16505;HTU21D;8365;51.030;4.696;2024-02-28T05:49:21;3.13;118.99
16505;HTU21D;8365;51.030;4.696;2024-02-28T05:51:52;3.16;118.99
16505;HTU21D;8365;51.030;4.696;2024-02-28T05:54:24;3.11;118.99
16505;HTU21D;8365;51.030;4.696;2024-02-28T05:56:54;3.05;118.99
16505;HTU21D;8365;51.030;4.696;2024-02-28T05:59:25;3.03;118.99
16505;HTU21D;8365;51.030;4.696;2024-02-28T06:01:55;3.01;118.99
16505;HTU21D;8365;51.030;4.696;2024-02-28T06:04:25;3.03;118.99
16505;HTU21D;8365;51.030;4.696;2024-02-28T06:06:58;3.02;118.99
16505;HTU21D;8365;51.030;4.696;2024-02-28T06:09:29;3.06;118.99
16505;HTU21D;8365;51.030;4.696;2024-02-28T06:12:00;3.09;118.99
16505;HTU21D;8365;51.030;4.696;2024-02-28T06:14:32;3.13;118.99
16505;HTU21D;8365;51.030;4.696;2024-02-28T06:17:02;3.16;118.99
16505;HTU21D;8365;51.030;4.696;2024-02-28T06:19:33;3.05;118.99
16505;HTU21D;8365;51.030;4.696;2024-02-28T06:22:05;3.13;118.99
16505;HTU21D;8365;51.030;4.696;2024-02-28T06:24:37;3.21;118.99
16505;HTU21D;8365;51.030;4.696;2024-02-28T06:27:08;3.29;118.99
16505;HTU21D;8365;51.030;4.696;2024-02-28T06:29:42;3.31;118.99
16505;HTU21D;8365;51.030;4.696;2024-02-28T06:32:15;3.32;118.99
16505;HTU21D;8365;51.030;4.696;2024-02-28T06:34:46;3.38;118.99
16505;HTU21D;8365;51.030;4.696;2024-02-28T06:37:17;3.38;118.99
16505;HTU21D;8365;51.030;4.696;2024-02-28T06:39:50;3.30;118.99
16505;HTU21D;8365;51.030;4.696;2024-02-28T06:42:20;3.29;118.99
16505;HTU21D;8365;51.030;4.696;2024-02-28T06:44:51;3.42;118.99
16505;HTU21D;8365;51.030;4.696;2024-02-28T06:47:21;3.43;118.99
16505;HTU21D;8365;51.030;4.696;2024-02-28T06:49:54;3.55;118.99
16505;HTU21D;8365;51.030;4.696;2024-02-28T06:52:25;3.62;118.99
16505;HTU21D;8365;51.030;4.696;2024-02-28T06:54:55;3.77;118.99
16505;HTU21D;8365;51.030;4.696;2024-02-28T06:57:25;3.84;118.99
16505;HTU21D;8365;51.030;4.696;2024-02-28T06:59:56;3.90;118.99
16505;HTU21D;8365;51.030;4.696;2024-02-28T07:02:26;3.98;118.99
16505;HTU21D;8365;51.030;4.696;2024-02-28T07:04:57;4.23;118.99
16505;HTU21D;8365;51.030;4.696;2024-02-28T07:07:27;4.38;118.99
16505;HTU21D;8365;51.030;4.696;2024-02-28T07:09:58;4.59;118.99
16505;HTU21D;8365;51.030;4.696;2024-02-28T07:12:29;4.62;118.99
16505;HTU21D;8365;51.030;4.696;2024-02-28T07:14:59;4.52;118.99
16505;HTU21D;8365;51.030;4.696;2024-02-28T07:17:30;4.47;118.99
16505;HTU21D;8365;51.030;4.696;2024-02-28T07:20:00;4.42;118.99
16505;HTU21D;8365;51.030;4.696;2024-02-28T07:22:30;4.47;118.99
16505;HTU21D;8365;51.030;4.696;2024-02-28T07:25:01;4.44;118.99
16505;HTU21D;8365;51.030;4.696;2024-02-28T07:27:31;4.49;118.99
16505;HTU21D;8365;51.030;4.696;2024-02-28T07:30:02;4.48;118.99
16505;HTU21D;8365;51.030;4.696;2024-02-28T07:32:36;4.42;118.99
16505;HTU21D;8365;51.030;4.696;2024-02-28T07:35:07;4.48;118.99
16505;HTU21D;8365;51.030;4.696;2024-02-28T07:37:38;4.38;118.99
16505;HTU21D;8365;51.030;4.696;2024-02-28T07:40:11;4.36;118.99
16505;HTU21D;8365;51.030;4.696;2024-02-28T07:42:41;4.29;118.99
16505;HTU21D;8365;51.030;4.696;2024-02-28T07:45:12;4.29;118.99
16505;HTU21D;8365;51.030;4.696;2024-02-28T07:47:42;4.35;118.99
16505;HTU21D;8365;51.030;4.696;2024-02-28T07:50:12;4.46;118.99
16505;HTU21D;8365;51.030;4.696;2024-02-28T07:52:43;4.65;118.99
16505;HTU21D;8365;51.030;4.696;2024-02-28T07:55:13;4.69;118.99
16505;HTU21D;8365;51.030;4.696;2024-02-28T07:57:44;4.73;118.99
16505;HTU21D;8365;51.030;4.696;2024-02-28T08:00:14;4.69;118.99
16505;HTU21D;8365;51.030;4.696;2024-02-28T08:02:48;4.74;118.99
16505;HTU21D;8365;51.030;4.696;2024-02-28T08:05:18;4.96;118.99
16505;HTU21D;8365;51.030;4.696;2024-02-28T08:07:49;5.11;118.99
16505;HTU21D;8365;51.030;4.696;2024-02-28T08:10:19;5.10;118.99
16505;HTU21D;8365;51.030;4.696;2024-02-28T08:12:50;5.08;118.99
16505;HTU21D;8365;51.030;4.696;2024-02-28T08:15:20;5.27;118.99
16505;HTU21D;8365;51.030;4.696;2024-02-28T08:17:51;5.32;118.99
16505;HTU21D;8365;51.030;4.696;2024-02-28T08:20:21;5.36;118.99
16505;HTU21D;8365;51.030;4.696;2024-02-28T08:22:52;5.49;118.99
16505;HTU21D;8365;51.030;4.696;2024-02-28T08:25:27;5.62;118.99
16505;HTU21D;8365;51.030;4.696;2024-02-28T08:28:00;5.61;118.99
16505;HTU21D;8365;51.030;4.696;2024-02-28T08:30:30;5.59;118.99
16505;HTU21D;8365;51.030;4.696;2024-02-28T08:33:01;5.59;118.99
16505;HTU21D;8365;51.030;4.696;2024-02-28T08:35:32;5.52;118.99
16505;HTU21D;8365;51.030;4.696;2024-02-28T08:38:02;5.51;118.99
16505;HTU21D;8365;51.030;4.696;2024-02-28T08:40:33;5.51;118.99
16505;HTU21D;8365;51.030;4.696;2024-02-28T08:43:03;5.63;118.99
16505;HTU21D;8365;51.030;4.696;2024-02-28T08:45:34;5.76;118.99
16505;HTU21D;8365;51.030;4.696;2024-02-28T08:48:07;5.74;118.99
16505;HTU21D;8365;51.030;4.696;2024-02-28T08:50:37;5.86;118.99
16505;HTU21D;8365;51.030;4.696;2024-02-28T08:53:08;5.79;118.99
16505;HTU21D;8365;51.030;4.696;2024-02-28T08:55:38;5.98;118.99
16505;HTU21D;8365;51.030;4.696;2024-02-28T08:58:09;6.07;118.99
16505;HTU21D;8365;51.030;4.696;2024-02-28T09:00:39;6.26;118.99
16505;HTU21D;8365;51.030;4.696;2024-02-28T09:03:10;6.28;118.99
16505;HTU21D;8365;51.030;4.696;2024-02-28T09:05:40;6.26;118.99
16505;HTU21D;8365;51.030;4.696;2024-02-28T09:08:11;6.20;118.99
16505;HTU21D;8365;51.030;4.696;2024-02-28T09:10:41;6.37;118.99
16505;HTU21D;8365;51.030;4.696;2024-02-28T09:13:12;6.14;118.99
16505;HTU21D;8365;51.030;4.696;2024-02-28T09:15:42;6.51;118.99
16505;HTU21D;8365;51.030;4.696;2024-02-28T09:18:13;6.40;118.99
16505;HTU21D;8365;51.030;4.696;2024-02-28T09:20:44;6.31;118.99
16505;HTU21D;8365;51.030;4.696;2024-02-28T09:23:14;6.30;118.99
16505;HTU21D;8365;51.030;4.696;2024-02-28T09:25:45;6.45;118.99
16505;HTU21D;8365;51.030;4.696;2024-02-28T09:28:15;6.51;118.99
16505;HTU21D;8365;51.030;4.696;2024-02-28T09:30:46;6.45;118.99
16505;HTU21D;8365;51.030;4.696;2024-02-28T09:33:17;6.67;118.99
16505;HTU21D;8365;51.030;4.696;2024-02-28T09:35:49;6.74;118.99
16505;HTU21D;8365;51.030;4.696;2024-02-28T09:38:20;6.70;118.99
16505;HTU21D;8365;51.030;4.696;2024-02-28T09:40:50;6.89;118.99
16505;HTU21D;8365;51.030;4.696;2024-02-28T09:43:26;7.07;118.99
16505;HTU21D;8365;51.030;4.696;2024-02-28T09:46:05;7.29;118.99
16505;HTU21D;8365;51.030;4.696;2024-02-28T09:48:38;7.24;118.99
16505;HTU21D;8365;51.030;4.696;2024-02-28T09:51:10;7.18;118.99
16505;HTU21D;8365;51.030;4.696;2024-02-28T09:53:41;7.26;118.99
16505;HTU21D;8365;51.030;4.696;2024-02-28T09:56:12;6.89;118.99
16505;HTU21D;8365;51.030;4.696;2024-02-28T09:58:43;6.86;118.99
16505;HTU21D;8365;51.030;4.696;2024-02-28T10:01:15;7.09;118.99
16505;HTU21D;8365;51.030;4.696;2024-02-28T10:03:50;6.73;118.99
16505;HTU21D;8365;51.030;4.696;2024-02-28T10:06:22;6.82;118.99
16505;HTU21D;8365;51.030;4.696;2024-02-28T10:08:52;7.13;118.99
16505;HTU21D;8365;51.030;4.696;2024-02-28T10:11:24;7.08;118.99
16505;HTU21D;8365;51.030;4.696;2024-02-28T10:13:54;6.90;118.99
16505;HTU21D;8365;51.030;4.696;2024-02-28T10:16:25;7.05;118.99
16505;HTU21D;8365;51.030;4.696;2024-02-28T10:18:56;6.94;118.99
16505;HTU21D;8365;51.030;4.696;2024-02-28T10:21:26;6.88;118.99
16505;HTU21D;8365;51.030;4.696;2024-02-28T10:23:58;6.98;118.99
16505;HTU21D;8365;51.030;4.696;2024-02-28T10:26:28;6.80;118.99
16505;HTU21D;8365;51.030;4.696;2024-02-28T10:29:03;6.96;118.99
16505;HTU21D;8365;51.030;4.696;2024-02-28T10:31:33;7.00;118.99
16505;HTU21D;8365;51.030;4.696;2024-02-28T10:34:04;7.35;118.99
16505;HTU21D;8365;51.030;4.696;2024-02-28T10:36:36;7.30;118.99
16505;HTU21D;8365;51.030;4.696;2024-02-28T10:39:08;7.52;118.99
16505;HTU21D;8365;51.030;4.696;2024-02-28T10:41:39;7.49;118.99
16505;HTU21D;8365;51.030;4.696;2024-02-28T10:44:12;7.39;118.99
16505;HTU21D;8365;51.030;4.696;2024-02-28T10:46:44;7.53;118.99
16505;HTU21D;8365;51.030;4.696;2024-02-28T10:49:14;7.55;118.99
16505;HTU21D;8365;51.030;4.696;2024-02-28T10:51:46;7.75;118.99
16505;HTU21D;8365;51.030;4.696;2024-02-28T10:54:20;7.68;118.99
16505;HTU21D;8365;51.030;4.696;2024-02-28T10:56:57;7.77;118.99
16505;HTU21D;8365;51.030;4.696;2024-02-28T10:59:28;8.24;118.99
16505;HTU21D;8365;51.030;4.696;2024-02-28T11:02:00;8.09;118.99
16505;HTU21D;8365;51.030;4.696;2024-02-28T11:04:30;8.09;118.99
16505;HTU21D;8365;51.030;4.696;2024-02-28T11:07:01;8.50;118.99
16505;HTU21D;8365;51.030;4.696;2024-02-28T11:09:34;8.51;118.99
16505;HTU21D;8365;51.030;4.696;2024-02-28T11:12:04;8.60;118.99
16505;HTU21D;8365;51.030;4.696;2024-02-28T11:14:36;8.66;118.99
16505;HTU21D;8365;51.030;4.696;2024-02-28T11:17:11;8.96;118.99
16505;HTU21D;8365;51.030;4.696;2024-02-28T11:19:41;8.87;118.99
16505;HTU21D;8365;51.030;4.696;2024-02-28T11:22:12;9.02;118.99
16505;HTU21D;8365;51.030;4.696;2024-02-28T11:24:45;8.92;118.99
16505;HTU21D;8365;51.030;4.696;2024-02-28T11:27:16;9.12;118.99
16505;HTU21D;8365;51.030;4.696;2024-02-28T11:29:46;9.02;118.99
16505;HTU21D;8365;51.030;4.696;2024-02-28T11:32:17;9.21;118.99
16505;HTU21D;8365;51.030;4.696;2024-02-28T11:34:47;9.08;118.99
16505;HTU21D;8365;51.030;4.696;2024-02-28T11:37:18;9.17;118.99
16505;HTU21D;8365;51.030;4.696;2024-02-28T11:39:48;9.03;118.99
16505;HTU21D;8365;51.030;4.696;2024-02-28T11:42:19;9.15;118.99
16505;HTU21D;8365;51.030;4.696;2024-02-28T11:44:53;9.18;118.99
16505;HTU21D;8365;51.030;4.696;2024-02-28T11:47:26;9.02;118.99
16505;HTU21D;8365;51.030;4.696;2024-02-28T11:50:00;8.98;118.99
16505;HTU21D;8365;51.030;4.696;2024-02-28T11:52:31;9.06;118.99
16505;HTU21D;8365;51.030;4.696;2024-02-28T11:55:04;9.23;118.99
16505;HTU21D;8365;51.030;4.696;2024-02-28T11:57:36;9.18;118.99
16505;HTU21D;8365;51.030;4.696;2024-02-28T12:00:07;8.98;118.99
16505;HTU21D;8365;51.030;4.696;2024-02-28T12:02:39;8.93;118.99
16505;HTU21D;8365;51.030;4.696;2024-02-28T12:05:10;8.82;118.99
16505;HTU21D;8365;51.030;4.696;2024-02-28T12:07:41;8.95;118.99
16505;HTU21D;8365;51.030;4.696;2024-02-28T12:10:11;8.98;118.99
16505;HTU21D;8365;51.030;4.696;2024-02-28T12:12:44;9.08;118.99
16505;HTU21D;8365;51.030;4.696;2024-02-28T12:15:14;9.19;118.99
16505;HTU21D;8365;51.030;4.696;2024-02-28T12:17:45;9.24;118.99
16505;HTU21D;8365;51.030;4.696;2024-02-28T12:20:20;9.24;118.99
16505;HTU21D;8365;51.030;4.696;2024-02-28T12:22:51;9.23;118.99
16505;HTU21D;8365;51.030;4.696;2024-02-28T12:25:21;9.33;118.99
16505;HTU21D;8365;51.030;4.696;2024-02-28T12:27:52;9.33;118.99
16505;HTU21D;8365;51.030;4.696;2024-02-28T12:30:22;9.62;118.99
16505;HTU21D;8365;51.030;4.696;2024-02-28T12:32:55;9.61;118.99
16505;HTU21D;8365;51.030;4.696;2024-02-28T12:35:26;9.64;118.99
16505;HTU21D;8365;51.030;4.696;2024-02-28T12:37:58;9.74;118.99
16505;HTU21D;8365;51.030;4.696;2024-02-28T12:40:29;9.74;118.99
16505;HTU21D;8365;51.030;4.696;2024-02-28T12:42:59;9.86;118.99
16505;HTU21D;8365;51.030;4.696;2024-02-28T12:45:30;10.11;118.99
16505;HTU21D;8365;51.030;4.696;2024-02-28T12:48:02;10.20;118.99
16505;HTU21D;8365;51.030;4.696;2024-02-28T12:50:33;9.88;118.99
16505;HTU21D;8365;51.030;4.696;2024-02-28T12:53:05;9.85;118.99
16505;HTU21D;8365;51.030;4.696;2024-02-28T12:55:36;9.82;118.99
16505;HTU21D;8365;51.030;4.696;2024-02-28T12:58:06;10.09;118.99
16505;HTU21D;8365;51.030;4.696;2024-02-28T13:00:37;9.79;118.99
16505;HTU21D;8365;51.030;4.696;2024-02-28T13:03:08;9.79;118.99
16505;HTU21D;8365;51.030;4.696;2024-02-28T13:05:39;9.83;118.99
16505;HTU21D;8365;51.030;4.696;2024-02-28T13:08:09;9.76;118.99
16505;HTU21D;8365;51.030;4.696;2024-02-28T13:10:40;9.77;118.99
16505;HTU21D;8365;51.030;4.696;2024-02-28T13:13:11;9.90;118.99
16505;HTU21D;8365;51.030;4.696;2024-02-28T13:15:43;9.97;118.99
16505;HTU21D;8365;51.030;4.696;2024-02-28T13:18:15;9.80;118.99
16505;HTU21D;8365;51.030;4.696;2024-02-28T13:20:45;9.69;118.99
16505;HTU21D;8365;51.030;4.696;2024-02-28T13:23:16;9.45;118.99
16505;HTU21D;8365;51.030;4.696;2024-02-28T13:25:46;9.90;118.99
16505;HTU21D;8365;51.030;4.696;2024-02-28T13:28:17;10.03;118.99
16505;HTU21D;8365;51.030;4.696;2024-02-28T13:30:48;10.26;118.99
16505;HTU21D;8365;51.030;4.696;2024-02-28T13:33:18;10.50;118.99
16505;HTU21D;8365;51.030;4.696;2024-02-28T13:35:50;10.40;118.99
16505;HTU21D;8365;51.030;4.696;2024-02-28T13:38:23;10.39;118.99
16505;HTU21D;8365;51.030;4.696;2024-02-28T13:40:56;10.13;118.99
16505;HTU21D;8365;51.030;4.696;2024-02-28T13:43:27;10.07;118.99
16505;HTU21D;8365;51.030;4.696;2024-02-28T13:45:58;10.41;118.99
16505;HTU21D;8365;51.030;4.696;2024-02-28T13:48:30;10.40;118.99
16505;HTU21D;8365;51.030;4.696;2024-02-28T13:51:02;10.67;118.99
16505;HTU21D;8365;51.030;4.696;2024-02-28T13:53:32;10.53;118.99
16505;HTU21D;8365;51.030;4.696;2024-02-28T13:56:03;10.98;118.99
16505;HTU21D;8365;51.030;4.696;2024-02-28T13:58:34;11.11;118.99
16505;HTU21D;8365;51.030;4.696;2024-02-28T14:01:04;11.29;118.99
16505;HTU21D;8365;51.030;4.696;2024-02-28T14:03:37;11.31;118.99
16505;HTU21D;8365;51.030;4.696;2024-02-28T14:06:07;11.23;118.99
16505;HTU21D;8365;51.030;4.696;2024-02-28T14:08:37;11.19;118.99
16505;HTU21D;8365;51.030;4.696;2024-02-28T14:11:08;10.93;118.99
16505;HTU21D;8365;51.030;4.696;2024-02-28T14:13:39;11.27;118.99
16505;HTU21D;8365;51.030;4.696;2024-02-28T14:16:09;11.40;118.99
16505;HTU21D;8365;51.030;4.696;2024-02-28T14:18:40;11.45;118.99
16505;HTU21D;8365;51.030;4.696;2024-02-28T14:21:10;11.61;118.99
16505;HTU21D;8365;51.030;4.696;2024-02-28T14:23:41;11.11;118.99
16505;HTU21D;8365;51.030;4.696;2024-02-28T14:26:11;11.39;118.99
16505;HTU21D;8365;51.030;4.696;2024-02-28T14:28:42;11.49;118.99
16505;HTU21D;8365;51.030;4.696;2024-02-28T14:31:12;11.45;118.99
16505;HTU21D;8365;51.030;4.696;2024-02-28T14:33:43;11.19;118.99
16505;HTU21D;8365;51.030;4.696;2024-02-28T14:36:13;11.11;118.99
16505;HTU21D;8365;51.030;4.696;2024-02-28T14:38:46;11.41;118.99
16505;HTU21D;8365;51.030;4.696;2024-02-28T14:41:17;11.20;118.99
16505;HTU21D;8365;51.030;4.696;2024-02-28T14:43:48;11.27;118.99
16505;HTU21D;8365;51.030;4.696;2024-02-28T14:46:19;11.26;118.99
16505;HTU21D;8365;51.030;4.696;2024-02-28T14:48:51;11.22;118.99
16505;HTU21D;8365;51.030;4.696;2024-02-28T14:51:22;11.12;118.99
16505;HTU21D;8365;51.030;4.696;2024-02-28T14:53:52;11.43;118.99
16505;HTU21D;8365;51.030;4.696;2024-02-28T14:56:25;11.23;118.99
16505;HTU21D;8365;51.030;4.696;2024-02-28T14:58:58;11.38;118.99
16505;HTU21D;8365;51.030;4.696;2024-02-28T15:01:28;11.64;118.99
16505;HTU21D;8365;51.030;4.696;2024-02-28T15:03:59;11.26;118.99
16505;HTU21D;8365;51.030;4.696;2024-02-28T15:06:30;11.15;118.99
16505;HTU21D;8365;51.030;4.696;2024-02-28T15:09:01;11.27;118.99
16505;HTU21D;8365;51.030;4.696;2024-02-28T15:11:36;11.14;118.99
16505;HTU21D;8365;51.030;4.696;2024-02-28T15:14:07;11.09;118.99
16505;HTU21D;8365;51.030;4.696;2024-02-28T15:16:37;11.08;118.99
16505;HTU21D;8365;51.030;4.696;2024-02-28T15:19:08;11.34;118.99
16505;HTU21D;8365;51.030;4.696;2024-02-28T15:21:38;11.02;118.99
16505;HTU21D;8365;51.030;4.696;2024-02-28T15:24:10;11.13;118.99
16505;HTU21D;8365;51.030;4.696;2024-02-28T15:26:41;11.31;118.99
16505;HTU21D;8365;51.030;4.696;2024-02-28T15:29:11;11.19;118.99
16505;HTU21D;8365;51.030;4.696;2024-02-28T15:31:41;11.16;118.99
16505;HTU21D;8365;51.030;4.696;2024-02-28T15:34:12;11.27;118.99
16505;HTU21D;8365;51.030;4.696;2024-02-28T15:36:43;11.37;118.99
16505;HTU21D;8365;51.030;4.696;2024-02-28T15:39:13;10.98;118.99
16505;HTU21D;8365;51.030;4.696;2024-02-28T15:41:45;11.07;118.99
16505;HTU21D;8365;51.030;4.696;2024-02-28T15:44:16;10.97;118.99
16505;HTU21D;8365;51.030;4.696;2024-02-28T15:46:46;10.79;118.99
16505;HTU21D;8365;51.030;4.696;2024-02-28T15:49:17;10.93;118.99
16505;HTU21D;8365;51.030;4.696;2024-02-28T15:51:49;10.94;118.99